sensor_id;sensor_type;location;lat;lon;timestamp;pressure;altitude;pressure_sealevel;temperature;humidity
39275;BME280;24980;48.874;2.332;2023-03-04T00:00:11;102119.69;;;27.46;30.99
39275;BME280;24980;48.874;2.332;2023-03-04T00:02:42;102126.06;;;27.48;31.03
39275;BME280;24980;48.874;2.332;2023-03-04T00:05:09;102120.99;;;27.50;31.05
39275;BME280;24980;48.874;2.332;2023-03-04T00:07:41;102123.42;;;27.52;31.09
39275;BME280;24980;48.874;2.332;2023-03-04T00:10:10;102122.64;;;27.54;31.13
39275;BME280;24980;48.874;2.332;2023-03-04T00:12:42;102125.88;;;27.54;31.17
39275;BME280;24980;48.874;2.332;2023-03-04T00:15:10;102126.64;;;27.54;31.22
39275;BME280;24980;48.874;2.332;2023-03-04T00:17:40;102125.11;;;27.53;31.25
39275;BME280;24980;48.874;2.332;2023-03-04T00:20:11;102130.48;;;27.54;31.27
39275;BME280;24980;48.874;2.332;2023-03-04T00:22:41;102135.75;;;27.55;31.29
39275;BME280;24980;48.874;2.332;2023-03-04T00:25:12;102137.97;;;27.54;31.32
39275;BME280;24980;48.874;2.332;2023-03-04T00:27:41;102142.15;;;27.53;31.35
39275;BME280;24980;48.874;2.332;2023-03-04T00:30:11;102136.19;;;27.53;31.37
39275;BME280;24980;48.874;2.332;2023-03-04T00:32:42;102140.80;;;27.52;31.40
39275;BME280;24980;48.874;2.332;2023-03-04T00:35:12;102139.64;;;27.51;31.42
39275;BME280;24980;48.874;2.332;2023-03-04T00:37:46;102146.29;;;27.49;31.43
39275;BME280;24980;48.874;2.332;2023-03-04T00:40:16;102141.86;;;27.49;31.43
39275;BME280;24980;48.874;2.332;2023-03-04T00:42:42;102143.18;;;27.48;31.44
39275;BME280;24980;48.874;2.332;2023-03-04T00:45:12;102140.80;;;27.48;31.44
39275;BME280;24980;48.874;2.332;2023-03-04T00:47:44;102144.28;;;27.48;31.45
39275;BME280;24980;48.874;2.332;2023-03-04T00:50:14;102148.72;;;27.47;31.44
39275;BME280;24980;48.874;2.332;2023-03-04T00:52:44;102151.10;;;27.48;31.44
39275;BME280;24980;48.874;2.332;2023-03-04T00:55:17;102149.73;;;27.48;31.44
39275;BME280;24980;48.874;2.332;2023-03-04T00:57:45;102152.63;;;27.48;31.44
39275;BME280;24980;48.874;2.332;2023-03-04T01:00:15;102151.36;;;27.47;31.44
39275;BME280;24980;48.874;2.332;2023-03-04T01:02:46;102152.72;;;27.48;31.45
39275;BME280;24980;48.874;2.332;2023-03-04T01:05:16;102154.09;;;27.47;31.44
39275;BME280;24980;48.874;2.332;2023-03-04T01:07:47;102155.53;;;27.47;31.45
39275;BME280;24980;48.874;2.332;2023-03-04T01:10:18;102155.79;;;27.47;31.45
39275;BME280;24980;48.874;2.332;2023-03-04T01:12:48;102152.39;;;27.46;31.46
39275;BME280;24980;48.874;2.332;2023-03-04T01:15:25;102151.11;;;27.45;31.47
39275;BME280;24980;48.874;2.332;2023-03-04T01:17:52;102150.52;;;27.45;31.46
39275;BME280;24980;48.874;2.332;2023-03-04T01:20:19;102147.66;;;27.45;31.47
39275;BME280;24980;48.874;2.332;2023-03-04T01:22:50;102153.03;;;27.44;31.46
39275;BME280;24980;48.874;2.332;2023-03-04T01:25:20;102152.43;;;27.44;31.47
39275;BME280;24980;48.874;2.332;2023-03-04T01:27:50;102150.28;;;27.43;31.48
39275;BME280;24980;48.874;2.332;2023-03-04T01:30:20;102148.58;;;27.43;31.49
39275;BME280;24980;48.874;2.332;2023-03-04T01:32:50;102143.68;;;27.41;31.50
39275;BME280;24980;48.874;2.332;2023-03-04T01:35:22;102145.38;;;27.41;31.49
39275;BME280;24980;48.874;2.332;2023-03-04T01:37:51;102146.23;;;27.40;31.51
39275;BME280;24980;48.874;2.332;2023-03-04T01:40:21;102145.34;;;27.38;31.52
39275;BME280;24980;48.874;2.332;2023-03-04T01:42:51;102140.08;;;27.36;31.53
39275;BME280;24980;48.874;2.332;2023-03-04T01:45:21;102137.05;;;27.35;31.54
39275;BME280;24980;48.874;2.332;2023-03-04T01:47:58;102134.77;;;27.34;31.56
39275;BME280;24980;48.874;2.332;2023-03-04T01:50:27;102133.05;;;27.35;31.59
39275;BME280;24980;48.874;2.332;2023-03-04T01:52:52;102130.84;;;27.35;31.61
39275;BME280;24980;48.874;2.332;2023-03-04T01:55:25;102123.73;;;27.36;31.61
39275;BME280;24980;48.874;2.332;2023-03-04T01:57:53;102125.69;;;27.36;31.61
39275;BME280;24980;48.874;2.332;2023-03-04T02:00:26;102126.66;;;27.35;31.61
39275;BME280;24980;48.874;2.332;2023-03-04T02:02:56;102122.49;;;27.35;31.61
39275;BME280;24980;48.874;2.332;2023-03-04T02:05:25;102113.69;;;27.36;31.60
39275;BME280;24980;48.874;2.332;2023-03-04T02:07:57;102120.49;;;27.36;31.60
39275;BME280;24980;48.874;2.332;2023-03-04T02:10:25;102112.49;;;27.36;31.59
39275;BME280;24980;48.874;2.332;2023-03-04T02:12:56;102114.28;;;27.36;31.58
39275;BME280;24980;48.874;2.332;2023-03-04T02:15:27;102116.88;;;27.35;31.60
39275;BME280;24980;48.874;2.332;2023-03-04T02:20:37;102121.30;;;27.35;31.65
39275;BME280;24980;48.874;2.332;2023-03-04T02:23:23;102124.62;;;27.35;31.66
39275;BME280;24980;48.874;2.332;2023-03-04T02:25:34;102124.07;;;27.36;31.68
39275;BME280;24980;48.874;2.332;2023-03-04T02:27:58;102122.03;;;27.36;31.68
39275;BME280;24980;48.874;2.332;2023-03-04T02:30:28;102121.17;;;27.36;31.69
39275;BME280;24980;48.874;2.332;2023-03-04T02:32:58;102124.88;;;27.35;31.71
39275;BME280;24980;48.874;2.332;2023-03-04T02:35:28;102122.23;;;27.34;31.70
39275;BME280;24980;48.874;2.332;2023-03-04T02:37:58;102119.27;;;27.33;31.70
39275;BME280;24980;48.874;2.332;2023-03-04T02:40:30;102120.29;;;27.33;31.69
39275;BME280;24980;48.874;2.332;2023-03-04T02:43:00;102120.29;;;27.33;31.68
39275;BME280;24980;48.874;2.332;2023-03-04T02:45:37;102110.79;;;27.32;31.66
39275;BME280;24980;48.874;2.332;2023-03-04T02:48:02;102114.55;;;27.31;31.63
39275;BME280;24980;48.874;2.332;2023-03-04T02:50:36;102111.99;;;27.31;31.64
39275;BME280;24980;48.874;2.332;2023-03-04T02:53:00;102109.61;;;27.31;31.62
39275;BME280;24980;48.874;2.332;2023-03-04T02:55:30;102106.80;;;27.31;31.61
39275;BME280;24980;48.874;2.332;2023-03-04T02:58:01;102102.53;;;27.32;31.60
39275;BME280;24980;48.874;2.332;2023-03-04T03:00:31;102104.80;;;27.33;31.59
39275;BME280;24980;48.874;2.332;2023-03-04T03:03:01;102099.34;;;27.33;31.59
39275;BME280;24980;48.874;2.332;2023-03-04T03:05:32;102099.98;;;27.32;31.59
39275;BME280;24980;48.874;2.332;2023-03-04T03:08:02;102098.28;;;27.32;31.58
39275;BME280;24980;48.874;2.332;2023-03-04T03:10:33;102093.85;;;27.31;31.58
39275;BME280;24980;48.874;2.332;2023-03-04T03:13:03;102093.42;;;27.32;31.56
39275;BME280;24980;48.874;2.332;2023-03-04T03:15:33;102090.53;;;27.32;31.56
39275;BME280;24980;48.874;2.332;2023-03-04T03:18:05;102087.21;;;27.32;31.58
39275;BME280;24980;48.874;2.332;2023-03-04T03:20:33;102086.36;;;27.32;31.58
39275;BME280;24980;48.874;2.332;2023-03-04T03:23:04;102090.97;;;27.31;31.56
39275;BME280;24980;48.874;2.332;2023-03-04T03:25:34;102083.22;;;27.31;31.57
39275;BME280;24980;48.874;2.332;2023-03-04T03:28:04;102084.20;;;27.33;31.55
39275;BME280;24980;48.874;2.332;2023-03-04T03:30:34;102086.57;;;27.34;31.53
39275;BME280;24980;48.874;2.332;2023-03-04T03:33:04;102084.52;;;27.34;31.53
39275;BME280;24980;48.874;2.332;2023-03-04T03:35:34;102087.00;;;27.33;31.54
39275;BME280;24980;48.874;2.332;2023-03-04T03:38:04;102085.73;;;27.33;31.54
39275;BME280;24980;48.874;2.332;2023-03-04T03:40:34;102083.77;;;27.33;31.54
39275;BME280;24980;48.874;2.332;2023-03-04T03:43:04;102080.61;;;27.33;31.54
39275;BME280;24980;48.874;2.332;2023-03-04T03:45:34;102084.61;;;27.35;31.53
39275;BME280;24980;48.874;2.332;2023-03-04T03:48:05;102083.97;;;27.36;31.53
39275;BME280;24980;48.874;2.332;2023-03-04T03:50:35;102090.22;;;27.35;31.53
39275;BME280;24980;48.874;2.332;2023-03-04T03:53:05;102088.36;;;27.34;31.53
39275;BME280;24980;48.874;2.332;2023-03-04T03:55:35;102098.75;;;27.33;31.55
39275;BME280;24980;48.874;2.332;2023-03-04T03:58:05;102094.06;;;27.33;31.56
39275;BME280;24980;48.874;2.332;2023-03-04T04:00:36;102098.06;;;27.34;31.55
39275;BME280;24980;48.874;2.332;2023-03-04T04:03:06;102102.15;;;27.34;31.54
39275;BME280;24980;48.874;2.332;2023-03-04T04:05:36;102099.34;;;27.34;31.55
39275;BME280;24980;48.874;2.332;2023-03-04T04:08:06;102102.75;;;27.34;31.53
39275;BME280;24980;48.874;2.332;2023-03-04T04:10:36;102105.64;;;27.33;31.54
39275;BME280;24980;48.874;2.332;2023-03-04T04:13:06;102106.84;;;27.33;31.54
39275;BME280;24980;48.874;2.332;2023-03-04T04:15:36;102112.62;;;27.34;31.52
39275;BME280;24980;48.874;2.332;2023-03-04T04:18:07;102110.06;;;27.34;31.51
39275;BME280;24980;48.874;2.332;2023-03-04T04:20:37;102109.05;;;27.34;31.52
39275;BME280;24980;48.874;2.332;2023-03-04T04:23:07;102114.16;;;27.34;31.51
39275;BME280;24980;48.874;2.332;2023-03-04T04:25:37;102114.37;;;27.32;31.52
39275;BME280;24980;48.874;2.332;2023-03-04T04:28:07;102109.98;;;27.33;31.52
39275;BME280;24980;48.874;2.332;2023-03-04T04:30:43;102110.41;;;27.34;31.52
39275;BME280;24980;48.874;2.332;2023-03-04T04:33:11;102114.58;;;27.35;31.51
39275;BME280;24980;48.874;2.332;2023-03-04T04:35:41;102114.20;;;27.36;31.50
39275;BME280;24980;48.874;2.332;2023-03-04T04:40:41;102112.27;;;27.35;31.49
39275;BME280;24980;48.874;2.332;2023-03-04T04:43:10;102112.62;;;27.35;31.49
39275;BME280;24980;48.874;2.332;2023-03-04T04:45:40;102117.12;;;27.35;31.49
39275;BME280;24980;48.874;2.332;2023-03-04T04:48:10;102115.13;;;27.36;31.49
39275;BME280;24980;48.874;2.332;2023-03-04T04:50:41;102119.64;;;27.36;31.48
39275;BME280;24980;48.874;2.332;2023-03-04T04:53:12;102123.73;;;27.36;31.46
39275;BME280;24980;48.874;2.332;2023-03-04T04:55:42;102125.52;;;27.36;31.46
39275;BME280;24980;48.874;2.332;2023-03-04T04:58:12;102131.60;;;27.35;31.48
39275;BME280;24980;48.874;2.332;2023-03-04T05:00:42;102135.56;;;27.36;31.50
39275;BME280;24980;48.874;2.332;2023-03-04T05:03:12;102134.50;;;27.35;31.49
39275;BME280;24980;48.874;2.332;2023-03-04T05:05:42;102134.75;;;27.35;31.51
39275;BME280;24980;48.874;2.332;2023-03-04T05:08:12;102135.77;;;27.35;31.51
39275;BME280;24980;48.874;2.332;2023-03-04T05:10:42;102138.25;;;27.33;31.52
39275;BME280;24980;48.874;2.332;2023-03-04T05:13:12;102141.32;;;27.33;31.52
39275;BME280;24980;48.874;2.332;2023-03-04T05:18:12;102138.94;;;27.33;31.52
39275;BME280;24980;48.874;2.332;2023-03-04T05:20:42;102143.95;;;27.34;31.51
39275;BME280;24980;48.874;2.332;2023-03-04T05:23:12;102146.09;;;27.33;31.52
39275;BME280;24980;48.874;2.332;2023-03-04T05:25:42;102147.62;;;27.33;31.51
39275;BME280;24980;48.874;2.332;2023-03-04T05:28:12;102144.84;;;27.32;31.52
39275;BME280;24980;48.874;2.332;2023-03-04T05:30:44;102144.98;;;27.33;31.50
39275;BME280;24980;48.874;2.332;2023-03-04T05:33:15;102141.23;;;27.34;31.51
39275;BME280;24980;48.874;2.332;2023-03-04T05:35:44;102147.70;;;27.35;31.49
39275;BME280;24980;48.874;2.332;2023-03-04T05:38:15;102150.08;;;27.35;31.49
39275;BME280;24980;48.874;2.332;2023-03-04T05:40:45;102147.61;;;27.35;31.47
39275;BME280;24980;48.874;2.332;2023-03-04T05:43:15;102144.47;;;27.34;31.49
39275;BME280;24980;48.874;2.332;2023-03-04T05:45:45;102139.79;;;27.33;31.49
39275;BME280;24980;48.874;2.332;2023-03-04T05:48:15;102146.59;;;27.33;31.50
39275;BME280;24980;48.874;2.332;2023-03-04T05:50:54;102144.04;;;27.34;31.49
39275;BME280;24980;48.874;2.332;2023-03-04T05:53:16;102146.17;;;27.34;31.47
39275;BME280;24980;48.874;2.332;2023-03-04T05:55:46;102146.69;;;27.33;31.47
39275;BME280;24980;48.874;2.332;2023-03-04T05:58:18;102145.87;;;27.32;31.50
39275;BME280;24980;48.874;2.332;2023-03-04T06:00:47;102149.36;;;27.32;31.50
39275;BME280;24980;48.874;2.332;2023-03-04T06:03:20;102151.45;;;27.33;31.51
39275;BME280;24980;48.874;2.332;2023-03-04T06:05:48;102150.94;;;27.34;31.54
39275;BME280;24980;48.874;2.332;2023-03-04T06:08:18;102154.30;;;27.36;31.57
39275;BME280;24980;48.874;2.332;2023-03-04T06:10:51;102156.84;;;27.37;31.58
39275;BME280;24980;48.874;2.332;2023-03-04T06:13:19;102158.98;;;27.36;31.60
39275;BME280;24980;48.874;2.332;2023-03-04T06:15:56;102163.10;;;27.35;31.62
39275;BME280;24980;48.874;2.332;2023-03-04T06:18:20;102166.17;;;27.35;31.62
39275;BME280;24980;48.874;2.332;2023-03-04T06:20:50;102166.38;;;27.37;31.61
39275;BME280;24980;48.874;2.332;2023-03-04T06:23:21;102167.48;;;27.37;31.59
39275;BME280;24980;48.874;2.332;2023-03-04T06:25:59;102170.04;;;27.37;31.57
39275;BME280;24980;48.874;2.332;2023-03-04T06:28:21;102172.34;;;27.37;31.56
39275;BME280;24980;48.874;2.332;2023-03-04T06:30:52;102169.97;;;27.36;31.54
39275;BME280;24980;48.874;2.332;2023-03-04T06:33:24;102173.15;;;27.35;31.53
39275;BME280;24980;48.874;2.332;2023-03-04T06:35:56;102177.92;;;27.35;31.52
39275;BME280;24980;48.874;2.332;2023-03-04T06:38:22;102181.83;;;27.35;31.50
39275;BME280;24980;48.874;2.332;2023-03-04T06:40:53;102182.22;;;27.36;31.49
39275;BME280;24980;48.874;2.332;2023-03-04T06:43:23;102179.96;;;27.35;31.49
39275;BME280;24980;48.874;2.332;2023-03-04T06:45:53;102178.69;;;27.33;31.49
39275;BME280;24980;48.874;2.332;2023-03-04T06:48:23;102183.47;;;27.33;31.48
39275;BME280;24980;48.874;2.332;2023-03-04T06:50:53;102188.14;;;27.33;31.49
39275;BME280;24980;48.874;2.332;2023-03-04T06:53:26;102189.80;;;27.32;31.48
39275;BME280;24980;48.874;2.332;2023-03-04T06:55:54;102190.73;;;27.31;31.50
39275;BME280;24980;48.874;2.332;2023-03-04T06:58:24;102189.38;;;27.32;31.47
39275;BME280;24980;48.874;2.332;2023-03-04T07:01:09;102193.63;;;27.32;31.46
39275;BME280;24980;48.874;2.332;2023-03-04T07:03:24;102192.02;;;27.32;31.46
39275;BME280;24980;48.874;2.332;2023-03-04T07:05:54;102188.02;;;27.31;31.45
39275;BME280;24980;48.874;2.332;2023-03-04T07:08:24;102193.17;;;27.33;31.46
39275;BME280;24980;48.874;2.332;2023-03-04T07:10:54;102194.45;;;27.33;31.49
39275;BME280;24980;48.874;2.332;2023-03-04T07:13:25;102197.51;;;27.33;31.49
39275;BME280;24980;48.874;2.332;2023-03-04T07:15:54;102200.61;;;27.32;31.51
39275;BME280;24980;48.874;2.332;2023-03-04T07:18:25;102201.73;;;27.30;31.53
39275;BME280;24980;48.874;2.332;2023-03-04T07:20:57;102211.77;;;27.30;31.54
39275;BME280;24980;48.874;2.332;2023-03-04T07:23:25;102204.70;;;27.30;31.56
39275;BME280;24980;48.874;2.332;2023-03-04T07:25:55;102205.73;;;27.30;31.56
39275;BME280;24980;48.874;2.332;2023-03-04T07:28:25;102204.45;;;27.30;31.56
39275;BME280;24980;48.874;2.332;2023-03-04T07:30:55;102206.49;;;27.30;31.55
39275;BME280;24980;48.874;2.332;2023-03-04T07:33:28;102210.08;;;27.30;31.55
39275;BME280;24980;48.874;2.332;2023-03-04T07:36:01;102212.92;;;27.29;31.56
39275;BME280;24980;48.874;2.332;2023-03-04T07:40:57;102221.48;;;27.31;31.57
39275;BME280;24980;48.874;2.332;2023-03-04T07:43:26;102226.33;;;27.31;31.58
39275;BME280;24980;48.874;2.332;2023-03-04T07:46:00;102222.33;;;27.31;31.57
39275;BME280;24980;48.874;2.332;2023-03-04T07:48:27;102221.05;;;27.30;31.58
39275;BME280;24980;48.874;2.332;2023-03-04T07:51:08;102223.22;;;27.28;31.61
39275;BME280;24980;48.874;2.332;2023-03-04T07:53:28;102226.28;;;27.29;31.62
39275;BME280;24980;48.874;2.332;2023-03-04T07:55:58;102224.75;;;27.28;31.62
39275;BME280;24980;48.874;2.332;2023-03-04T07:58:31;102225.53;;;27.27;31.64
39275;BME280;24980;48.874;2.332;2023-03-04T08:00:59;102223.23;;;27.27;31.65
39275;BME280;24980;48.874;2.332;2023-03-04T08:03:30;102231.01;;;27.26;31.66
39275;BME280;24980;48.874;2.332;2023-03-04T08:06:02;102240.20;;;27.25;31.67
39275;BME280;24980;48.874;2.332;2023-03-04T08:08:30;102238.00;;;27.25;31.68
39275;BME280;24980;48.874;2.332;2023-03-04T08:11:05;102239.52;;;27.25;31.68
39275;BME280;24980;48.874;2.332;2023-03-04T08:13:32;102239.70;;;27.25;31.71
39275;BME280;24980;48.874;2.332;2023-03-04T08:16:03;102245.15;;;27.24;31.69
39275;BME280;24980;48.874;2.332;2023-03-04T08:18:32;102248.68;;;27.22;31.72
39275;BME280;24980;48.874;2.332;2023-03-04T08:21:07;102247.41;;;27.20;31.71
39275;BME280;24980;48.874;2.332;2023-03-04T08:23:33;102250.17;;;27.17;31.72
39275;BME280;24980;48.874;2.332;2023-03-04T08:26:07;102250.72;;;27.14;31.75
39275;BME280;24980;48.874;2.332;2023-03-04T08:28:34;102256.17;;;27.14;31.73
39275;BME280;24980;48.874;2.332;2023-03-04T08:31:05;102255.41;;;27.15;31.73
39275;BME280;24980;48.874;2.332;2023-03-04T08:33:35;102254.47;;;27.14;31.76
39275;BME280;24980;48.874;2.332;2023-03-04T08:36:06;102259.78;;;27.12;31.78
39275;BME280;24980;48.874;2.332;2023-03-04T08:38:35;102262.97;;;27.08;31.80
39275;BME280;24980;48.874;2.332;2023-03-04T08:41:06;102256.80;;;27.07;31.86
39275;BME280;24980;48.874;2.332;2023-03-04T08:43:38;102254.51;;;27.04;31.94
39275;BME280;24980;48.874;2.332;2023-03-04T08:46:08;102259.95;;;27.05;32.01
39275;BME280;24980;48.874;2.332;2023-03-04T08:48:38;102255.95;;;27.04;32.06
39275;BME280;24980;48.874;2.332;2023-03-04T08:51:10;102255.61;;;27.05;32.10
39275;BME280;24980;48.874;2.332;2023-03-04T08:53:39;102253.83;;;27.04;32.15
39275;BME280;24980;48.874;2.332;2023-03-04T08:56:09;102256.30;;;27.04;32.19
39275;BME280;24980;48.874;2.332;2023-03-04T08:58:44;102257.09;;;27.03;32.23
39275;BME280;24980;48.874;2.332;2023-03-04T09:01:11;102263.48;;;27.02;32.25
39275;BME280;24980;48.874;2.332;2023-03-04T09:03:41;102261.36;;;27.01;32.27
39275;BME280;24980;48.874;2.332;2023-03-04T09:06:15;102264.54;;;27.00;32.26
39275;BME280;24980;48.874;2.332;2023-03-04T09:08:40;102264.62;;;26.98;32.25
39275;BME280;24980;48.874;2.332;2023-03-04T09:11:11;102265.22;;;26.97;32.22
39275;BME280;24980;48.874;2.332;2023-03-04T09:13:41;102267.22;;;26.96;32.21
39275;BME280;24980;48.874;2.332;2023-03-04T09:16:13;102267.81;;;26.94;32.19
39275;BME280;24980;48.874;2.332;2023-03-04T09:18:45;102268.78;;;26.93;32.17
39275;BME280;24980;48.874;2.332;2023-03-04T09:21:14;102274.06;;;26.92;32.16
39275;BME280;24980;48.874;2.332;2023-03-04T09:23:42;102275.00;;;26.91;32.15
39275;BME280;24980;48.874;2.332;2023-03-04T09:26:18;102275.09;;;26.91;32.13
39275;BME280;24980;48.874;2.332;2023-03-04T09:28:42;102274.78;;;26.89;32.11
39275;BME280;24980;48.874;2.332;2023-03-04T09:31:14;102278.95;;;26.88;32.10
39275;BME280;24980;48.874;2.332;2023-03-04T09:33:46;102275.75;;;26.86;32.10
39275;BME280;24980;48.874;2.332;2023-03-04T09:36:13;102272.47;;;26.83;32.11
39275;BME280;24980;48.874;2.332;2023-03-04T09:38:44;102274.09;;;26.81;32.11
39275;BME280;24980;48.874;2.332;2023-03-04T09:41:18;102274.09;;;26.79;32.13
39275;BME280;24980;48.874;2.332;2023-03-04T09:43:46;102272.90;;;26.79;32.14
39275;BME280;24980;48.874;2.332;2023-03-04T09:46:28;102278.26;;;26.80;32.16
39275;BME280;24980;48.874;2.332;2023-03-04T09:48:51;102282.12;;;26.81;32.18
39275;BME280;24980;48.874;2.332;2023-03-04T09:56:17;102284.25;;;26.78;32.23
39275;BME280;24980;48.874;2.332;2023-03-04T10:01:29;102280.33;;;26.77;32.23
39275;BME280;24980;48.874;2.332;2023-03-04T10:03:57;102281.10;;;26.76;32.22
39275;BME280;24980;48.874;2.332;2023-03-04T10:06:22;102277.53;;;26.75;32.19
39275;BME280;24980;48.874;2.332;2023-03-04T10:08:57;102281.10;;;26.75;32.17
39275;BME280;24980;48.874;2.332;2023-03-04T10:11:45;102282.92;;;26.72;32.16
39275;BME280;24980;48.874;2.332;2023-03-04T10:16:25;102280.48;;;26.71;32.13
39275;BME280;24980;48.874;2.332;2023-03-04T10:19:02;102278.19;;;26.70;32.13
39275;BME280;24980;48.874;2.332;2023-03-04T10:21:31;102278.16;;;26.72;32.14
39275;BME280;24980;48.874;2.332;2023-03-04T10:23:57;102279.64;;;26.71;32.12
39275;BME280;24980;48.874;2.332;2023-03-04T10:26:28;102276.33;;;26.70;32.11
39275;BME280;24980;48.874;2.332;2023-03-04T10:29:02;102276.83;;;26.69;32.11
39275;BME280;24980;48.874;2.332;2023-03-04T10:31:36;102271.81;;;26.70;32.11
39275;BME280;24980;48.874;2.332;2023-03-04T10:33:58;102269.00;;;26.69;32.12
39275;BME280;24980;48.874;2.332;2023-03-04T10:39:05;102256.34;;;26.70;32.11
39275;BME280;24980;48.874;2.332;2023-03-04T10:41:29;102253.61;;;26.70;32.09
39275;BME280;24980;48.874;2.332;2023-03-04T10:46:28;102254.20;;;26.68;32.08
39275;BME280;24980;48.874;2.332;2023-03-04T10:48:58;102252.20;;;26.66;32.09
39275;BME280;24980;48.874;2.332;2023-03-04T10:51:29;102254.36;;;26.65;32.07
39275;BME280;24980;48.874;2.332;2023-03-04T10:54:15;102255.38;;;26.64;32.08
39275;BME280;24980;48.874;2.332;2023-03-04T10:56:31;102251.64;;;26.64;32.07
39275;BME280;24980;48.874;2.332;2023-03-04T11:01:31;102246.20;;;26.63;32.06
39275;BME280;24980;48.874;2.332;2023-03-04T11:04:17;102243.42;;;26.61;32.07
39275;BME280;24980;48.874;2.332;2023-03-04T11:06:39;102244.11;;;26.60;32.08
39275;BME280;24980;48.874;2.332;2023-03-04T11:09:17;102244.31;;;26.57;32.08
39275;BME280;24980;48.874;2.332;2023-03-04T11:11:43;102242.02;;;26.57;32.10
39275;BME280;24980;48.874;2.332;2023-03-04T11:14:15;102240.34;;;26.55;32.13
39275;BME280;24980;48.874;2.332;2023-03-04T11:16:35;102234.95;;;26.55;32.15
39275;BME280;24980;48.874;2.332;2023-03-04T11:19:12;102230.20;;;26.56;32.16
39275;BME280;24980;48.874;2.332;2023-03-04T11:21:38;102228.58;;;26.56;32.16
39275;BME280;24980;48.874;2.332;2023-03-04T11:24:13;102228.61;;;26.55;32.17
39275;BME280;24980;48.874;2.332;2023-03-04T11:26:52;102225.98;;;26.53;32.17
39275;BME280;24980;48.874;2.332;2023-03-04T11:29:29;102226.15;;;26.52;32.17
39275;BME280;24980;48.874;2.332;2023-03-04T11:32:04;102224.22;;;26.52;32.16
39275;BME280;24980;48.874;2.332;2023-03-04T11:37:07;102214.53;;;26.51;32.14
39275;BME280;24980;48.874;2.332;2023-03-04T11:39:45;102213.42;;;26.51;32.13
39275;BME280;24980;48.874;2.332;2023-03-04T11:41:46;102204.59;;;26.49;32.12
39275;BME280;24980;48.874;2.332;2023-03-04T11:44:14;102205.61;;;26.49;32.11
39275;BME280;24980;48.874;2.332;2023-03-04T11:47:10;102199.23;;;26.49;32.11
39275;BME280;24980;48.874;2.332;2023-03-04T11:49:24;102197.39;;;26.48;32.10
39275;BME280;24980;48.874;2.332;2023-03-04T11:56:56;102188.69;;;26.49;32.06
39275;BME280;24980;48.874;2.332;2023-03-04T12:04:22;102186.94;;;26.47;32.06
39275;BME280;24980;48.874;2.332;2023-03-04T12:12:21;102184.72;;;26.46;32.07
39275;BME280;24980;48.874;2.332;2023-03-04T12:17:23;102179.03;;;26.46;32.06
39275;BME280;24980;48.874;2.332;2023-03-04T12:19:26;102182.52;;;26.46;32.04
39275;BME280;24980;48.874;2.332;2023-03-04T12:22:13;102181.83;;;26.46;32.04
39275;BME280;24980;48.874;2.332;2023-03-04T12:27:00;102182.20;;;26.43;32.05
39275;BME280;24980;48.874;2.332;2023-03-04T12:29:45;102183.73;;;26.43;32.06
39275;BME280;24980;48.874;2.332;2023-03-04T12:34:32;102170.09;;;26.41;32.07
39275;BME280;24980;48.874;2.332;2023-03-04T12:39:49;102165.33;;;26.40;32.09
39275;BME280;24980;48.874;2.332;2023-03-04T12:44:26;102163.62;;;26.40;32.08
39275;BME280;24980;48.874;2.332;2023-03-04T12:47:27;102162.47;;;26.38;32.08
39275;BME280;24980;48.874;2.332;2023-03-04T12:52:13;102161.20;;;26.38;32.04
39275;BME280;24980;48.874;2.332;2023-03-04T12:54:42;102164.17;;;26.37;32.02
39275;BME280;24980;48.874;2.332;2023-03-04T12:57:20;102153.46;;;26.36;32.02
39275;BME280;24980;48.874;2.332;2023-03-04T12:59:33;102145.84;;;26.35;32.02
39275;BME280;24980;48.874;2.332;2023-03-04T13:02:21;102145.08;;;26.34;32.02
39275;BME280;24980;48.874;2.332;2023-03-04T13:07:17;102137.30;;;26.31;32.02
39275;BME280;24980;48.874;2.332;2023-03-04T13:09:32;102138.02;;;26.30;32.00
39275;BME280;24980;48.874;2.332;2023-03-04T13:14:32;102125.94;;;26.29;31.99
39275;BME280;24980;48.874;2.332;2023-03-04T13:17:05;102123.98;;;26.29;32.00
39275;BME280;24980;48.874;2.332;2023-03-04T13:19:51;102122.28;;;26.29;32.03
39275;BME280;24980;48.874;2.332;2023-03-04T13:22:24;102120.42;;;26.28;32.05
39275;BME280;24980;48.874;2.332;2023-03-04T13:24:50;102115.86;;;26.26;32.07
39275;BME280;24980;48.874;2.332;2023-03-04T13:29:33;102106.77;;;26.26;32.09
39275;BME280;24980;48.874;2.332;2023-03-04T13:32:10;102104.52;;;26.27;32.10
39275;BME280;24980;48.874;2.332;2023-03-04T13:34:49;102096.28;;;26.27;32.10
39275;BME280;24980;48.874;2.332;2023-03-04T13:39:39;102100.10;;;26.29;32.12
39275;BME280;24980;48.874;2.332;2023-03-04T13:45:01;102098.06;;;26.27;32.12
39275;BME280;24980;48.874;2.332;2023-03-04T13:47:14;102093.98;;;26.27;32.14
39275;BME280;24980;48.874;2.332;2023-03-04T13:49:41;102088.97;;;26.27;32.09
39275;BME280;24980;48.874;2.332;2023-03-04T13:52:40;102091.61;;;26.28;32.08
39275;BME280;24980;48.874;2.332;2023-03-04T13:54:42;102091.18;;;26.28;32.06
39275;BME280;24980;48.874;2.332;2023-03-04T13:57:19;102092.38;;;26.27;32.04
39275;BME280;24980;48.874;2.332;2023-03-04T13:59:47;102092.88;;;26.27;32.01
39275;BME280;24980;48.874;2.332;2023-03-04T14:02:18;102092.41;;;26.25;32.00
39275;BME280;24980;48.874;2.332;2023-03-04T14:04:58;102088.33;;;26.25;31.99
39275;BME280;24980;48.874;2.332;2023-03-04T14:07:28;102090.79;;;26.25;31.97
39275;BME280;24980;48.874;2.332;2023-03-04T14:12:15;102082.46;;;26.25;31.94
39275;BME280;24980;48.874;2.332;2023-03-04T14:14:49;102077.88;;;26.24;31.94
39275;BME280;24980;48.874;2.332;2023-03-04T14:17:21;102072.39;;;26.23;31.93
39275;BME280;24980;48.874;2.332;2023-03-04T14:19:46;102073.41;;;26.22;31.93